createdAt,value
2022-10-28T00:00:31.086Z,8.16
2022-10-28T00:03:01.567Z,8.11
2022-10-28T00:05:33.344Z,8.15
2022-10-28T00:08:00.028Z,8.12
2022-10-28T00:10:26.791Z,8.19
2022-10-28T00:12:53.508Z,8.20
2022-10-28T00:15:20.269Z,8.25
2022-10-28T00:17:46.938Z,8.26
2022-10-28T00:20:13.706Z,8.15
2022-10-28T00:22:40.409Z,8.03
2022-10-28T00:25:07.735Z,7.91
2022-10-28T00:27:34.663Z,7.92
2022-10-28T00:30:01.498Z,7.84
2022-10-28T00:32:31.898Z,7.93
2022-10-28T00:34:58.567Z,7.89
2022-10-28T00:37:25.324Z,7.80
2022-10-28T00:39:52.005Z,7.76
2022-10-28T00:42:22.241Z,7.71
2022-10-28T00:45:00.234Z,7.61
2022-10-28T00:47:55.990Z,7.62
2022-10-28T00:50:53.240Z,7.62
2022-10-28T00:53:26.930Z,7.68
2022-10-28T00:55:55.392Z,7.65
2022-10-28T00:58:25.441Z,7.76
2022-10-28T01:00:52.562Z,7.74
2022-10-28T01:03:19.311Z,7.79
2022-10-28T01:05:48.273Z,7.83
2022-10-28T01:08:16.127Z,7.85
2022-10-28T01:10:57.612Z,7.92
2022-10-28T01:13:46.440Z,7.94
2022-10-28T01:16:25.993Z,7.87
2022-10-28T01:19:01.663Z,7.94
2022-10-28T01:21:49.830Z,7.92
2022-10-28T01:24:43.899Z,7.96
2022-10-28T01:27:16.435Z,7.87
2022-10-28T01:30:06.695Z,7.60
2022-10-28T01:32:39.265Z,7.49
2022-10-28T01:35:38.148Z,7.27
2022-10-28T01:38:25.410Z,7.14
2022-10-28T01:40:54.915Z,7.05
2022-10-28T01:43:39.682Z,7.05
2022-10-28T01:46:16.297Z,7.15
2022-10-28T01:48:51.161Z,7.25
2022-10-28T01:51:26.682Z,7.23
2022-10-28T01:53:55.984Z,7.19
2022-10-28T01:56:28.356Z,7.18
2022-10-28T01:58:59.092Z,7.10
2022-10-28T02:01:29.593Z,7.06
2022-10-28T02:03:56.899Z,6.95
2022-10-28T02:06:27.372Z,6.91
2022-10-28T02:09:03.943Z,6.82
2022-10-28T02:12:07.960Z,6.88
2022-10-28T02:15:25.105Z,6.85
2022-10-28T02:18:13.959Z,6.83
2022-10-28T02:21:15.876Z,6.83
2022-10-28T02:23:51.186Z,6.84
2022-10-28T02:26:47.010Z,6.89
2022-10-28T02:29:28.601Z,6.91
2022-10-28T02:32:00.863Z,6.91
2022-10-28T02:34:32.384Z,6.79
2022-10-28T02:37:03.238Z,6.73
2022-10-28T02:39:37.052Z,6.81
2022-10-28T02:42:19.451Z,6.79
2022-10-28T02:44:52.486Z,6.75
2022-10-28T02:47:24.510Z,6.73
2022-10-28T02:49:56.652Z,6.64
2022-10-28T02:52:27.701Z,6.54
2022-10-28T02:55:00.049Z,6.57
2022-10-28T02:57:34.036Z,6.52
2022-10-28T03:00:08.077Z,6.48
2022-10-28T03:02:34.973Z,6.29
2022-10-28T03:05:01.770Z,6.32
2022-10-28T03:07:28.473Z,6.36
2022-10-28T03:09:55.225Z,6.38
2022-10-28T03:12:21.917Z,6.28
2022-10-28T03:14:48.606Z,6.10
2022-10-28T03:17:15.294Z,5.89
2022-10-28T03:19:42.024Z,5.81
2022-10-28T03:22:08.717Z,5.74
2022-10-28T03:24:35.469Z,5.78
2022-10-28T03:27:02.152Z,5.84
2022-10-28T03:29:28.833Z,5.93
2022-10-28T03:31:55.618Z,5.98
2022-10-28T03:34:22.324Z,5.93
2022-10-28T03:36:49.028Z,6.02
2022-10-28T03:39:15.922Z,5.93
2022-10-28T03:41:42.609Z,5.97
2022-10-28T03:44:09.421Z,5.85
2022-10-28T03:46:36.303Z,6.05
2022-10-28T03:49:03.716Z,5.89
2022-10-28T03:51:30.283Z,5.64
2022-10-28T03:53:57.006Z,5.50
2022-10-28T03:56:23.733Z,5.39
2022-10-28T04:01:22.551Z,5.42
2022-10-28T04:03:49.326Z,5.47
2022-10-28T04:06:16.900Z,5.49
2022-10-28T04:08:43.647Z,5.64
2022-10-28T04:11:10.420Z,5.73
2022-10-28T04:13:37.120Z,5.77
2022-10-28T04:16:04.114Z,5.81
2022-10-28T04:18:30.895Z,5.78
2022-10-28T04:20:57.668Z,5.70
2022-10-28T04:23:24.530Z,5.59
2022-10-28T04:25:54.881Z,5.58
2022-10-28T04:28:24.283Z,5.50
2022-10-28T04:30:51.048Z,5.41
2022-10-28T04:33:17.754Z,5.35
2022-10-28T04:35:44.913Z,5.31
2022-10-28T04:38:12.645Z,5.28
2022-10-28T04:40:39.427Z,5.17
2022-10-28T04:43:08.554Z,5.14
2022-10-28T04:45:36.862Z,5.20
2022-10-28T04:48:03.793Z,5.29
2022-10-28T04:50:30.670Z,5.29
2022-10-28T04:52:57.403Z,5.37
2022-10-28T04:55:24.123Z,5.40
2022-10-28T04:57:58.506Z,5.37
2022-10-28T05:00:28.142Z,5.42
2022-10-28T05:02:55.309Z,5.43
2022-10-28T05:05:23.492Z,5.40
2022-10-28T05:07:50.401Z,5.31
2022-10-28T05:10:18.283Z,5.22
2022-10-28T05:12:46.113Z,5.22
2022-10-28T05:15:14.559Z,5.20
2022-10-28T05:17:44.688Z,5.20
2022-10-28T05:20:13.298Z,5.18
2022-10-28T05:22:48.184Z,5.09
2022-10-28T05:25:15.124Z,5.08
2022-10-28T05:27:42.001Z,5.13
2022-10-28T05:30:10.317Z,5.11
2022-10-28T05:32:37.398Z,5.10
2022-10-28T05:35:08.308Z,4.92
2022-10-28T05:37:35.855Z,5.03
2022-10-28T05:40:03.160Z,4.88
2022-10-28T05:42:29.785Z,5.02
2022-10-28T05:44:56.479Z,5.02
2022-10-28T05:47:23.408Z,5.02
2022-10-28T05:49:50.086Z,5.09
2022-10-28T05:52:16.794Z,5.14
2022-10-28T05:54:43.661Z,5.16
2022-10-28T05:57:10.402Z,5.07
2022-10-28T05:59:38.318Z,5.07
2022-10-28T06:02:05.033Z,5.03
2022-10-28T06:04:32.987Z,5.01
2022-10-28T06:06:59.795Z,5.07
2022-10-28T06:09:28.630Z,5.10
2022-10-28T06:11:53.809Z,5.10
2022-10-28T06:14:20.602Z,5.16
2022-10-28T06:16:47.276Z,5.20
2022-10-28T06:19:13.962Z,5.25
2022-10-28T06:21:41.840Z,5.31
2022-10-28T06:24:12.204Z,5.35
2022-10-28T06:26:39.378Z,5.37
2022-10-28T06:29:09.453Z,5.51
2022-10-28T06:31:40.171Z,5.60
2022-10-28T06:34:11.022Z,5.66
2022-10-28T06:36:38.331Z,5.83
2022-10-28T06:39:05.471Z,6.08
2022-10-28T06:41:32.531Z,6.34
2022-10-28T06:43:59.434Z,6.54
2022-10-28T06:46:27.541Z,6.71
2022-10-28T06:48:56.130Z,6.74
2022-10-28T06:51:23.630Z,6.49
2022-10-28T06:53:53.596Z,6.20
2022-10-28T06:56:20.309Z,6.19
2022-10-28T06:58:53.818Z,6.24
2022-10-28T07:01:21.938Z,6.49
2022-10-28T07:03:49.235Z,6.70
2022-10-28T07:06:16.376Z,6.90
2022-10-28T07:08:43.088Z,6.90
2022-10-28T07:11:09.865Z,7.09
2022-10-28T07:13:36.540Z,7.08
2022-10-28T07:16:03.409Z,7.37
2022-10-28T07:18:30.615Z,7.47
2022-10-28T07:21:01.839Z,7.51
2022-10-28T07:23:29.076Z,7.64
2022-10-28T07:25:56.564Z,7.80
2022-10-28T07:28:24.693Z,7.93
2022-10-28T07:30:51.475Z,8.11
2022-10-28T07:33:18.268Z,8.32
2022-10-28T07:35:45.158Z,8.65
2022-10-28T07:38:12.304Z,8.98
2022-10-28T07:40:39.148Z,9.41
2022-10-28T07:43:05.915Z,9.91
2022-10-28T07:45:32.672Z,10.31
2022-10-28T07:47:59.381Z,10.58
2022-10-28T07:50:26.098Z,11.08
2022-10-28T07:52:53.034Z,11.64
2022-10-28T07:55:21.697Z,12.00
2022-10-28T07:57:48.806Z,12.37
2022-10-28T08:00:16.064Z,12.79
2022-10-28T08:02:42.797Z,13.05
2022-10-28T08:05:09.581Z,13.32
2022-10-28T08:07:38.648Z,13.68
2022-10-28T08:10:06.666Z,13.92
2022-10-28T08:12:33.601Z,14.12
2022-10-28T08:15:00.424Z,14.32
2022-10-28T08:17:27.121Z,14.28
2022-10-28T08:19:53.821Z,14.45
2022-10-28T08:22:20.528Z,14.72
2022-10-28T08:24:47.240Z,15.02
2022-10-28T08:27:13.996Z,15.10
2022-10-28T08:29:40.693Z,14.64
2022-10-28T08:32:10.510Z,15.04
2022-10-28T08:34:39.487Z,15.47
2022-10-28T08:37:09.541Z,15.93
2022-10-28T08:39:36.322Z,16.11
2022-10-28T08:42:15.456Z,16.47
2022-10-28T08:44:53.443Z,16.84
2022-10-28T08:47:43.085Z,17.13
2022-10-28T08:50:14.506Z,17.00
2022-10-28T08:52:51.430Z,17.13
2022-10-28T08:55:46.305Z,16.92
2022-10-28T08:58:18.767Z,17.18
2022-10-28T09:00:50.507Z,17.58
2022-10-28T09:03:29.849Z,17.97
2022-10-28T09:06:02.772Z,18.10
2022-10-28T09:08:33.510Z,18.16
2022-10-28T09:11:13.837Z,18.33
2022-10-28T09:14:01.380Z,18.70
2022-10-28T09:16:40.065Z,19.00
2022-10-28T09:19:15.515Z,19.13
2022-10-28T09:21:48.008Z,19.24
2022-10-28T09:24:21.345Z,19.45
2022-10-28T09:26:56.251Z,19.51
2022-10-28T09:29:39.217Z,19.38
2022-10-28T09:32:32.840Z,19.40
2022-10-28T09:35:06.433Z,19.70
2022-10-28T09:37:39.224Z,19.93
2022-10-28T09:40:20.528Z,20.19
2022-10-28T09:43:09.752Z,20.35
2022-10-28T09:45:40.446Z,20.54
2022-10-28T09:48:20.136Z,20.76
2022-10-28T09:50:50.859Z,20.40
2022-10-28T09:53:26.513Z,20.51
2022-10-28T09:55:53.352Z,19.96
2022-10-28T09:58:20.044Z,20.22
2022-10-28T10:00:46.838Z,20.59
2022-10-28T10:03:16.968Z,20.96
2022-10-28T10:05:49.074Z,21.33
2022-10-28T10:08:19.143Z,21.63
2022-10-28T10:11:01.139Z,21.96
2022-10-28T10:13:34.104Z,22.02
2022-10-28T10:16:05.771Z,21.80
2022-10-28T10:18:36.904Z,21.78
2022-10-28T10:21:03.901Z,22.01
2022-10-28T10:23:33.292Z,22.25
2022-10-28T10:26:15.814Z,22.43
2022-10-28T10:28:46.665Z,22.35
2022-10-28T10:31:26.853Z,22.54
2022-10-28T10:33:56.788Z,22.66
2022-10-28T10:36:29.006Z,22.97
2022-10-28T10:39:00.985Z,23.01
2022-10-28T10:41:42.607Z,22.92
2022-10-28T10:44:21.540Z,22.66
2022-10-28T10:47:08.207Z,22.43
2022-10-28T10:49:36.265Z,22.60
2022-10-28T10:52:07.612Z,22.62
2022-10-28T10:54:37.453Z,22.74
2022-10-28T10:57:17.120Z,22.82
2022-10-28T10:59:49.898Z,22.60
2022-10-28T11:02:27.537Z,22.40
2022-10-28T11:05:01.811Z,22.55
2022-10-28T11:07:29.674Z,22.63
2022-10-28T11:09:56.407Z,22.71
2022-10-28T11:12:28.169Z,22.64
2022-10-28T11:14:57.837Z,22.76
2022-10-28T11:17:34.903Z,22.98
2022-10-28T11:20:25.018Z,23.19
2022-10-28T11:23:20.800Z,23.23
2022-10-28T11:25:53.377Z,23.34
2022-10-28T11:28:35.971Z,23.61
2022-10-28T11:31:57.173Z,23.75
2022-10-28T11:34:42.481Z,23.96
2022-10-28T11:37:15.615Z,23.74
2022-10-28T11:39:59.080Z,23.79
2022-10-28T11:42:43.220Z,24.01
2022-10-28T11:45:38.888Z,24.08
2022-10-28T11:48:22.512Z,24.28
2022-10-28T11:51:04.217Z,24.32
2022-10-28T11:53:51.398Z,24.14
2022-10-28T11:56:35.692Z,24.41
2022-10-28T11:59:17.187Z,24.61
2022-10-28T12:02:22.738Z,24.64
2022-10-28T12:05:01.822Z,24.85
2022-10-28T12:08:05.321Z,24.83
2022-10-28T12:10:32.005Z,24.92
2022-10-28T12:13:04.761Z,24.88
2022-10-28T12:16:00.527Z,25.05
2022-10-28T12:18:49.209Z,25.17
2022-10-28T12:24:00.137Z,25.06
2022-10-28T12:26:40.008Z,24.88
2022-10-28T12:29:23.954Z,24.78
2022-10-28T12:31:57.967Z,24.94
2022-10-28T12:34:31.639Z,24.69
2022-10-28T12:37:13.627Z,24.55
2022-10-28T12:39:49.068Z,24.32
2022-10-28T12:42:23.834Z,24.50
2022-10-28T12:44:54.067Z,24.55
2022-10-28T12:47:28.816Z,24.74
2022-10-28T12:50:25.651Z,24.63
2022-10-28T12:53:04.317Z,24.81
2022-10-28T12:55:43.367Z,24.44
2022-10-28T12:58:17.496Z,24.44
2022-10-28T13:00:51.182Z,24.56
2022-10-28T13:03:18.887Z,24.62
2022-10-28T13:06:11.964Z,24.54
2022-10-28T13:08:53.519Z,24.39
2022-10-28T13:11:49.298Z,24.39
2022-10-28T13:14:15.914Z,24.33
2022-10-28T13:16:54.681Z,24.10
2022-10-28T13:19:58.924Z,23.89
2022-10-28T13:22:40.538Z,23.94
2022-10-28T13:25:48.328Z,23.85
2022-10-28T13:28:18.247Z,23.83
2022-10-28T13:30:56.094Z,23.79
2022-10-28T13:33:27.833Z,23.74
2022-10-28T13:36:07.428Z,23.74
2022-10-28T13:38:35.092Z,23.54
2022-10-28T13:41:01.812Z,23.55
2022-10-28T13:43:50.185Z,23.67
2022-10-28T13:46:54.131Z,23.54
2022-10-28T13:49:31.021Z,23.63
2022-10-28T13:52:08.296Z,23.66
2022-10-28T13:54:44.115Z,23.64
2022-10-28T13:57:26.189Z,23.59
2022-10-28T14:03:02.143Z,23.52
2022-10-28T14:05:38.094Z,23.46
2022-10-28T14:08:17.248Z,23.51
2022-10-28T14:11:04.910Z,23.48
2022-10-28T14:13:36.956Z,23.40
2022-10-28T14:16:51.640Z,23.31
2022-10-28T14:19:22.436Z,23.12
2022-10-28T14:22:03.378Z,22.85
2022-10-28T14:24:40.640Z,22.54
2022-10-28T14:27:11.597Z,22.33
2022-10-28T14:30:08.715Z,22.03
2022-10-28T14:32:42.167Z,21.78
2022-10-28T14:35:14.826Z,21.45
2022-10-28T14:38:09.362Z,20.99
2022-10-28T14:40:45.113Z,20.69
2022-10-28T14:43:30.984Z,20.48
2022-10-28T14:46:17.895Z,20.12
2022-10-28T14:48:47.160Z,19.88
2022-10-28T14:51:19.684Z,19.69
2022-10-28T14:53:47.291Z,19.52
2022-10-28T14:56:31.233Z,19.28
2022-10-28T14:59:04.706Z,19.19
2022-10-28T15:01:50.614Z,19.25
2022-10-28T15:04:18.379Z,19.30
2022-10-28T15:06:48.460Z,19.26
2022-10-28T15:09:22.177Z,19.14
2022-10-28T15:11:59.842Z,18.94
2022-10-28T15:14:31.371Z,18.68
2022-10-28T15:17:00.822Z,18.37
2022-10-28T15:19:29.337Z,18.11
2022-10-28T15:22:18.317Z,17.94
2022-10-28T15:24:56.416Z,17.87
2022-10-28T15:27:25.603Z,17.73
2022-10-28T15:29:53.507Z,17.49
2022-10-28T15:32:20.529Z,17.32
2022-10-28T15:34:48.915Z,17.02
2022-10-28T15:37:21.958Z,16.67
2022-10-28T15:39:52.574Z,16.36
2022-10-28T15:42:29.873Z,16.14
2022-10-28T15:44:57.568Z,15.98
2022-10-28T15:47:32.992Z,15.81
2022-10-28T15:50:21.363Z,15.59
2022-10-28T15:52:52.785Z,15.44
2022-10-28T15:55:23.758Z,15.29
2022-10-28T15:58:00.360Z,15.15
2022-10-28T16:00:29.691Z,15.05
2022-10-28T16:03:02.323Z,14.93
2022-10-28T16:05:42.827Z,14.88
2022-10-28T16:08:22.544Z,14.76
2022-10-28T16:11:13.238Z,14.62
2022-10-28T16:13:48.176Z,14.58
2022-10-28T16:16:24.380Z,14.52
2022-10-28T16:19:08.005Z,14.40
2022-10-28T16:21:36.011Z,14.33
2022-10-28T16:24:02.978Z,14.32
2022-10-28T16:26:31.023Z,14.26
2022-10-28T16:28:57.927Z,14.21
2022-10-28T16:31:28.516Z,14.13
2022-10-28T16:33:55.234Z,14.03
2022-10-28T16:36:21.952Z,14.00
2022-10-28T16:38:48.677Z,13.93
2022-10-28T16:41:18.827Z,13.88
2022-10-28T16:43:46.215Z,13.80
2022-10-28T16:46:13.791Z,13.71
2022-10-28T16:48:41.161Z,13.67
2022-10-28T16:51:14.829Z,13.59
2022-10-28T16:53:46.941Z,13.50
2022-10-28T16:56:16.048Z,13.43
2022-10-28T16:58:43.972Z,13.37
2022-10-28T17:01:11.749Z,13.31
2022-10-28T17:03:38.665Z,13.22
2022-10-28T17:06:05.577Z,13.04
2022-10-28T17:09:00.754Z,12.95
2022-10-28T17:11:19.157Z,12.87
2022-10-28T17:13:46.019Z,12.83
2022-10-28T17:16:13.094Z,12.79
2022-10-28T17:18:40.233Z,12.76
2022-10-28T17:21:06.822Z,12.75
2022-10-28T17:23:33.527Z,12.73
2022-10-28T17:26:03.334Z,12.67
2022-10-28T17:28:31.272Z,12.69
2022-10-28T17:31:06.175Z,12.64
2022-10-28T17:33:34.033Z,12.65
2022-10-28T17:36:06.332Z,12.60
2022-10-28T17:38:33.956Z,12.49
2022-10-28T17:41:01.606Z,12.29
2022-10-28T17:43:31.197Z,12.17
2022-10-28T17:46:08.160Z,12.10
2022-10-28T17:48:38.802Z,11.98
2022-10-28T17:51:10.581Z,11.92
2022-10-28T17:53:40.914Z,11.90
2022-10-28T17:56:19.761Z,11.89
2022-10-28T17:58:48.890Z,11.81
2022-10-28T18:01:20.265Z,11.76
2022-10-28T18:03:52.892Z,11.75
2022-10-28T18:06:26.157Z,11.72
2022-10-28T18:08:55.063Z,11.62
2022-10-28T18:11:23.566Z,11.51
2022-10-28T18:13:53.910Z,11.44
2022-10-28T18:16:24.598Z,11.44
2022-10-28T18:18:53.793Z,11.28
2022-10-28T18:21:23.487Z,11.24
2022-10-28T18:23:53.873Z,11.15
2022-10-28T18:26:22.335Z,11.15
2022-10-28T18:28:52.686Z,11.19
2022-10-28T18:31:21.103Z,11.17
2022-10-28T18:33:50.771Z,11.16
2022-10-28T18:36:24.897Z,11.15
2022-10-28T18:38:53.091Z,11.09
2022-10-28T18:41:23.510Z,11.12
2022-10-28T18:43:58.234Z,11.16
2022-10-28T18:46:26.361Z,11.19
2022-10-28T18:48:55.649Z,11.22
2022-10-28T18:51:23.175Z,11.24
2022-10-28T18:53:51.132Z,11.22
2022-10-28T18:56:21.440Z,11.18
2022-10-28T18:58:50.979Z,11.00
2022-10-28T19:01:27.748Z,11.06
2022-10-28T19:03:59.055Z,10.97
2022-10-28T19:06:30.009Z,10.89
2022-10-28T19:08:59.685Z,10.83
2022-10-28T19:11:30.880Z,10.77
2022-10-28T19:14:02.636Z,10.75
2022-10-28T19:16:31.709Z,10.72
2022-10-28T19:19:00.589Z,10.70
2022-10-28T19:21:29.062Z,10.66
2022-10-28T19:23:56.295Z,10.62
2022-10-28T19:26:23.754Z,10.54
2022-10-28T19:28:51.686Z,10.53
2022-10-28T19:31:20.655Z,10.49
2022-10-28T19:33:47.878Z,10.39
2022-10-28T19:36:21.119Z,10.42
2022-10-28T19:38:49.577Z,10.34
2022-10-28T19:41:18.933Z,10.39
2022-10-28T19:43:46.408Z,10.39
2022-10-28T19:46:18.571Z,10.42
2022-10-28T19:48:47.725Z,10.47
2022-10-28T19:51:16.677Z,10.47
2022-10-28T19:54:00.403Z,10.35
2022-10-28T19:56:29.144Z,10.32
2022-10-28T19:58:58.342Z,10.36
2022-10-28T20:01:27.177Z,10.36
2022-10-28T20:03:55.137Z,10.45
2022-10-28T20:06:24.915Z,10.49
2022-10-28T20:08:51.836Z,10.46
2022-10-28T20:11:24.936Z,10.56
2022-10-28T20:13:56.654Z,10.59
2022-10-28T20:16:24.500Z,10.58
2022-10-28T20:18:51.219Z,10.62
2022-10-28T20:21:23.249Z,10.75
2022-10-28T20:23:55.680Z,10.83
2022-10-28T20:26:29.120Z,10.89
2022-10-28T20:28:56.443Z,10.90
2022-10-28T20:31:26.480Z,10.90
2022-10-28T20:33:58.777Z,10.86
2022-10-28T20:36:27.005Z,10.82
2022-10-28T20:38:55.538Z,10.83
2022-10-28T20:41:23.964Z,10.87
2022-10-28T20:43:51.878Z,10.87
2022-10-28T20:46:20.251Z,10.92
2022-10-28T20:48:47.632Z,10.94
2022-10-28T20:51:14.293Z,10.98
2022-10-28T20:53:41.438Z,10.99
2022-10-28T20:56:08.729Z,10.99
2022-10-28T20:58:35.843Z,10.96
2022-10-28T21:01:12.813Z,11.03
2022-10-28T21:03:42.753Z,10.99
2022-10-28T21:06:10.328Z,11.05
2022-10-28T21:08:37.363Z,11.07
2022-10-28T21:11:05.711Z,11.16
2022-10-28T21:13:32.969Z,11.20
2022-10-28T21:16:03.117Z,11.24
2022-10-28T21:18:29.829Z,11.28
2022-10-28T21:20:57.774Z,11.30
2022-10-28T21:23:24.860Z,11.35
2022-10-28T21:25:58.250Z,11.39
2022-10-28T21:28:25.386Z,11.30
2022-10-28T21:30:52.152Z,11.36
2022-10-28T21:33:19.035Z,11.41
2022-10-28T21:35:55.940Z,11.36
2022-10-28T21:38:22.690Z,11.44
2022-10-28T21:40:49.371Z,11.46
2022-10-28T21:43:16.534Z,11.47
2022-10-28T21:45:43.083Z,11.50
2022-10-28T21:48:09.827Z,11.50
2022-10-28T21:50:36.526Z,11.51
2022-10-28T21:53:04.125Z,11.57
2022-10-28T21:55:46.153Z,11.56
2022-10-28T21:58:14.997Z,11.59
2022-10-28T22:00:43.023Z,11.60
2022-10-28T22:03:13.505Z,11.62
2022-10-28T22:05:40.337Z,11.59
2022-10-28T22:08:07.059Z,11.60
2022-10-28T22:10:33.863Z,11.61
2022-10-28T22:13:00.570Z,11.61
2022-10-28T22:15:27.275Z,11.52
2022-10-28T22:17:54.322Z,11.52
2022-10-28T22:20:21.290Z,11.59
2022-10-28T22:22:48.028Z,11.59
2022-10-28T22:25:14.772Z,11.56
2022-10-28T22:27:41.471Z,11.57
2022-10-28T22:30:08.891Z,11.56
2022-10-28T22:32:35.618Z,11.53
2022-10-28T22:35:02.324Z,11.52
2022-10-28T22:37:29.144Z,11.53
2022-10-28T22:39:55.826Z,11.46
2022-10-28T22:42:24.141Z,11.48
2022-10-28T22:44:50.816Z,11.39
2022-10-28T22:47:17.539Z,11.42
2022-10-28T22:49:44.284Z,11.41
2022-10-28T22:52:10.964Z,11.40
2022-10-28T22:54:37.658Z,11.35
2022-10-28T22:57:04.385Z,11.37
2022-10-28T22:59:31.104Z,11.37
2022-10-28T23:01:58.049Z,11.29
2022-10-28T23:04:24.871Z,11.36
2022-10-28T23:06:51.544Z,11.35
2022-10-28T23:09:19.288Z,11.34
2022-10-28T23:11:46.028Z,11.35
2022-10-28T23:14:12.720Z,11.36
2022-10-28T23:16:39.484Z,11.32
2022-10-28T23:19:06.194Z,11.27
2022-10-28T23:21:32.946Z,11.31
2022-10-28T23:24:00.743Z,11.28
2022-10-28T23:26:29.340Z,11.31
2022-10-28T23:28:58.295Z,11.31
2022-10-28T23:31:25.858Z,11.28
2022-10-28T23:33:54.734Z,11.36
2022-10-28T23:36:22.095Z,11.36
2022-10-28T23:38:48.798Z,11.36
2022-10-28T23:41:18.842Z,11.34
2022-10-28T23:43:46.251Z,11.33
2022-10-28T23:46:13.031Z,11.29
2022-10-28T23:48:39.984Z,11.27
2022-10-28T23:51:06.974Z,11.25
2022-10-28T23:53:34.214Z,11.23
2022-10-28T23:56:00.802Z,11.21
2022-10-28T23:58:27.781Z,11.20
